sensor_id;sensor_type;location;lat;lon;timestamp;pressure;altitude;pressure_sealevel;temperature;humidity
75815;BME280;64451;45.574;14.224;2023-01-15T00:00:12;97168.75;;;-0.76;96.38
75815;BME280;64451;45.574;14.224;2023-01-15T00:02:13;97158.84;;;-0.94;96.79
75815;BME280;64451;45.574;14.224;2023-01-15T00:04:16;97166.91;;;-0.75;96.56
75815;BME280;64451;45.574;14.224;2023-01-15T00:06:17;97165.75;;;-0.93;96.51
75815;BME280;64451;45.574;14.224;2023-01-15T00:08:18;97160.88;;;-0.82;96.48
75815;BME280;64451;45.574;14.224;2023-01-15T00:10:18;97151.13;;;-0.89;96.06
75815;BME280;64451;45.574;14.224;2023-01-15T00:12:19;97152.81;;;-1.21;96.61
75815;BME280;64451;45.574;14.224;2023-01-15T00:14:19;97142.63;;;-1.04;95.30
75815;BME280;64451;45.574;14.224;2023-01-15T00:16:22;97148.72;;;-1.03;95.32
75815;BME280;64451;45.574;14.224;2023-01-15T00:18:22;97152.38;;;-1.04;94.97
75815;BME280;64451;45.574;14.224;2023-01-15T00:20:22;97147.31;;;-1.06;95.31
75815;BME280;64451;45.574;14.224;2023-01-15T00:22:23;97145.72;;;-1.33;96.90
75815;BME280;64451;45.574;14.224;2023-01-15T00:24:23;97136.78;;;-1.39;97.58
75815;BME280;64451;45.574;14.224;2023-01-15T00:26:42;97136.16;;;-1.21;97.69
75815;BME280;64451;45.574;14.224;2023-01-15T00:29:02;97143.88;;;-1.20;97.33
75815;BME280;64451;45.574;14.224;2023-01-15T00:31:03;97132.72;;;-1.28;98.22
75815;BME280;64451;45.574;14.224;2023-01-15T00:33:03;97127.59;;;-1.03;97.79
75815;BME280;64451;45.574;14.224;2023-01-15T00:35:04;97126.56;;;-1.02;97.20
75815;BME280;64451;45.574;14.224;2023-01-15T00:37:04;97123.38;;;-1.31;98.24
75815;BME280;64451;45.574;14.224;2023-01-15T00:39:05;97123.34;;;-1.11;98.29
75815;BME280;64451;45.574;14.224;2023-01-15T00:41:05;97115.97;;;-0.96;97.68
75815;BME280;64451;45.574;14.224;2023-01-15T00:43:05;97120.63;;;-0.91;97.17
75815;BME280;64451;45.574;14.224;2023-01-15T00:45:07;97116.63;;;-1.07;97.43
75815;BME280;64451;45.574;14.224;2023-01-15T00:47:10;97105.81;;;-0.92;96.36
75815;BME280;64451;45.574;14.224;2023-01-15T00:49:14;97109.31;;;-1.05;96.79
75815;BME280;64451;45.574;14.224;2023-01-15T00:51:14;97103.22;;;-1.12;96.62
75815;BME280;64451;45.574;14.224;2023-01-15T00:53:14;97100.50;;;-0.92;96.42
75815;BME280;64451;45.574;14.224;2023-01-15T00:55:15;97098.31;;;-0.95;95.52
75815;BME280;64451;45.574;14.224;2023-01-15T00:57:15;97108.84;;;-0.89;95.41
75815;BME280;64451;45.574;14.224;2023-01-15T00:59:15;97102.19;;;-0.98;95.62
75815;BME280;64451;45.574;14.224;2023-01-15T01:01:16;97104.41;;;-1.01;95.96
75815;BME280;64451;45.574;14.224;2023-01-15T01:03:16;97104.69;;;-1.23;96.23
75815;BME280;64451;45.574;14.224;2023-01-15T01:05:17;97100.44;;;-1.44;97.47
75815;BME280;64451;45.574;14.224;2023-01-15T01:07:17;97105.31;;;-1.34;96.59
75815;BME280;64451;45.574;14.224;2023-01-15T01:09:17;97099.44;;;-1.43;96.22
75815;BME280;64451;45.574;14.224;2023-01-15T01:11:20;97090.94;;;-1.64;96.54
75815;BME280;64451;45.574;14.224;2023-01-15T01:13:22;97100.44;;;-1.44;96.41
75815;BME280;64451;45.574;14.224;2023-01-15T01:15:23;97100.88;;;-1.53;96.04
75815;BME280;64451;45.574;14.224;2023-01-15T01:17:24;97094.81;;;-1.74;96.71
75815;BME280;64451;45.574;14.224;2023-01-15T01:19:25;97095.59;;;-2.00;97.90
75815;BME280;64451;45.574;14.224;2023-01-15T01:21:26;97095.59;;;-1.93;98.80
75815;BME280;64451;45.574;14.224;2023-01-15T01:23:26;97093.38;;;-1.70;98.23
75815;BME280;64451;45.574;14.224;2023-01-15T01:25:28;97092.16;;;-1.67;98.06
75815;BME280;64451;45.574;14.224;2023-01-15T01:27:29;97100.22;;;-1.35;97.22
75815;BME280;64451;45.574;14.224;2023-01-15T01:29:29;97097.56;;;-1.22;96.29
75815;BME280;64451;45.574;14.224;2023-01-15T01:31:29;97105.50;;;-1.22;95.83
75815;BME280;64451;45.574;14.224;2023-01-15T01:33:30;97100.59;;;-1.25;95.78
75815;BME280;64451;45.574;14.224;2023-01-15T01:35:30;97095.16;;;-1.24;95.22
75815;BME280;64451;45.574;14.224;2023-01-15T01:37:31;97092.53;;;-1.44;95.99
75815;BME280;64451;45.574;14.224;2023-01-15T01:39:31;97100.00;;;-1.27;95.77
75815;BME280;64451;45.574;14.224;2023-01-15T01:41:32;97093.13;;;-1.28;96.08
75815;BME280;64451;45.574;14.224;2023-01-15T01:44:01;97089.44;;;-1.21;96.01
75815;BME280;64451;45.574;14.224;2023-01-15T01:46:02;97087.84;;;-1.28;96.36
75815;BME280;64451;45.574;14.224;2023-01-15T01:48:04;97088.41;;;-1.13;95.90
75815;BME280;64451;45.574;14.224;2023-01-15T01:50:09;97093.25;;;-1.10;96.09
75815;BME280;64451;45.574;14.224;2023-01-15T01:52:17;97078.66;;;-1.19;96.08
75815;BME280;64451;45.574;14.224;2023-01-15T01:54:20;97084.97;;;-1.20;96.70
75815;BME280;64451;45.574;14.224;2023-01-15T01:56:23;97084.16;;;-1.21;96.63
75815;BME280;64451;45.574;14.224;2023-01-15T01:58:27;97076.81;;;-1.12;96.84
75815;BME280;64451;45.574;14.224;2023-01-15T02:00:31;97072.13;;;-1.10;96.89
75815;BME280;64451;45.574;14.224;2023-01-15T02:02:32;97070.53;;;-1.11;96.88
75815;BME280;64451;45.574;14.224;2023-01-15T02:04:35;97069.63;;;-1.76;98.09
75815;BME280;64451;45.574;14.224;2023-01-15T02:06:36;97066.41;;;-1.72;98.55
75815;BME280;64451;45.574;14.224;2023-01-15T02:08:37;97067.19;;;-1.64;97.99
75815;BME280;64451;45.574;14.224;2023-01-15T02:10:38;97062.31;;;-1.61;96.93
75815;BME280;64451;45.574;14.224;2023-01-15T02:12:41;97069.03;;;-1.65;96.73
75815;BME280;64451;45.574;14.224;2023-01-15T02:14:54;97058.06;;;-1.75;96.92
75815;BME280;64451;45.574;14.224;2023-01-15T02:17:09;97055.63;;;-1.77;97.27
75815;BME280;64451;45.574;14.224;2023-01-15T02:24:06;97053.16;;;-1.52;97.28
75815;BME280;64451;45.574;14.224;2023-01-15T02:28:32;97044.94;;;-1.17;96.62
75815;BME280;64451;45.574;14.224;2023-01-15T02:30:44;97045.00;;;-1.30;96.73
75815;BME280;64451;45.574;14.224;2023-01-15T02:33:04;97040.31;;;-1.28;97.03
75815;BME280;64451;45.574;14.224;2023-01-15T02:35:12;97040.97;;;-1.39;97.52
75815;BME280;64451;45.574;14.224;2023-01-15T02:37:21;97031.81;;;-1.37;97.89
75815;BME280;64451;45.574;14.224;2023-01-15T02:39:25;97031.44;;;-1.40;98.35
75815;BME280;64451;45.574;14.224;2023-01-15T02:41:33;97028.00;;;-1.48;98.69
75815;BME280;64451;45.574;14.224;2023-01-15T02:43:36;97024.72;;;-1.50;98.62
75815;BME280;64451;45.574;14.224;2023-01-15T02:45:40;97021.63;;;-1.27;98.13
75815;BME280;64451;45.574;14.224;2023-01-15T02:47:43;97016.56;;;-1.35;98.01
75815;BME280;64451;45.574;14.224;2023-01-15T02:49:45;97020.13;;;-1.09;97.42
75815;BME280;64451;45.574;14.224;2023-01-15T02:51:59;97015.47;;;-1.07;97.38
75815;BME280;64451;45.574;14.224;2023-01-15T02:54:05;97013.19;;;-0.97;96.97
75815;BME280;64451;45.574;14.224;2023-01-15T02:56:13;97016.41;;;-0.95;96.55
75815;BME280;64451;45.574;14.224;2023-01-15T02:58:16;97009.50;;;-0.90;96.52
75815;BME280;64451;45.574;14.224;2023-01-15T03:00:21;97008.22;;;-0.80;95.65
75815;BME280;64451;45.574;14.224;2023-01-15T03:02:28;97002.28;;;-0.76;95.75
75815;BME280;64451;45.574;14.224;2023-01-15T03:04:39;96993.56;;;-0.76;95.43
75815;BME280;64451;45.574;14.224;2023-01-15T03:07:17;96998.00;;;-0.70;95.60
75815;BME280;64451;45.574;14.224;2023-01-15T03:09:07;96998.38;;;-0.67;95.21
75815;BME280;64451;45.574;14.224;2023-01-15T03:11:09;96996.19;;;-0.76;95.52
75815;BME280;64451;45.574;14.224;2023-01-15T03:13:16;96995.38;;;-0.77;95.77
75815;BME280;64451;45.574;14.224;2023-01-15T03:15:20;96986.25;;;-0.74;96.66
75815;BME280;64451;45.574;14.224;2023-01-15T03:17:47;96985.38;;;-0.68;96.41
75815;BME280;64451;45.574;14.224;2023-01-15T03:20:01;96987.38;;;-0.64;96.59
75815;BME280;64451;45.574;14.224;2023-01-15T03:22:12;96984.97;;;-0.65;96.82
75815;BME280;64451;45.574;14.224;2023-01-15T03:26:37;96977.72;;;-0.83;96.50
75815;BME280;64451;45.574;14.224;2023-01-15T03:28:38;96973.66;;;-0.79;96.99
75815;BME280;64451;45.574;14.224;2023-01-15T03:30:40;96973.78;;;-0.67;97.07
75815;BME280;64451;45.574;14.224;2023-01-15T03:32:40;96967.78;;;-0.81;97.15
75815;BME280;64451;45.574;14.224;2023-01-15T03:34:52;96966.00;;;-0.94;98.43
75815;BME280;64451;45.574;14.224;2023-01-15T03:36:53;96957.59;;;-0.77;98.77
75815;BME280;64451;45.574;14.224;2023-01-15T03:38:53;96950.75;;;-0.60;98.30
75815;BME280;64451;45.574;14.224;2023-01-15T03:43:00;96940.69;;;-1.08;100.00
75815;BME280;64451;45.574;14.224;2023-01-15T03:45:25;96940.75;;;-0.83;99.97
75815;BME280;64451;45.574;14.224;2023-01-15T03:47:52;96929.69;;;-0.98;100.00
75815;BME280;64451;45.574;14.224;2023-01-15T03:50:02;96943.53;;;-0.71;100.00
75815;BME280;64451;45.574;14.224;2023-01-15T03:57:26;96922.88;;;-0.31;97.40
75815;BME280;64451;45.574;14.224;2023-01-15T03:59:36;96920.31;;;-0.19;97.28
75815;BME280;64451;45.574;14.224;2023-01-15T04:01:40;96924.59;;;-0.18;96.95
75815;BME280;64451;45.574;14.224;2023-01-15T04:03:42;96914.81;;;-0.18;97.69
75815;BME280;64451;45.574;14.224;2023-01-15T04:05:44;96913.59;;;-0.15;96.65
75815;BME280;64451;45.574;14.224;2023-01-15T04:07:46;96902.41;;;-0.17;96.65
75815;BME280;64451;45.574;14.224;2023-01-15T04:09:47;96899.13;;;-0.13;96.48
75815;BME280;64451;45.574;14.224;2023-01-15T04:11:47;96892.50;;;-0.47;98.24
75815;BME280;64451;45.574;14.224;2023-01-15T04:13:48;96906.84;;;-0.61;99.33
75815;BME280;64451;45.574;14.224;2023-01-15T04:15:48;96896.28;;;-0.61;99.96
75815;BME280;64451;45.574;14.224;2023-01-15T04:17:49;96898.72;;;-0.60;99.73
75815;BME280;64451;45.574;14.224;2023-01-15T04:19:49;96892.34;;;-0.52;99.98
75815;BME280;64451;45.574;14.224;2023-01-15T04:21:50;96881.38;;;-0.31;99.47
75815;BME280;64451;45.574;14.224;2023-01-15T04:23:51;96885.47;;;-0.35;99.32
75815;BME280;64451;45.574;14.224;2023-01-15T04:25:51;96888.25;;;-0.48;99.09
75815;BME280;64451;45.574;14.224;2023-01-15T04:27:54;96893.31;;;-0.46;99.89
75815;BME280;64451;45.574;14.224;2023-01-15T04:29:55;96889.06;;;-0.47;100.00
75815;BME280;64451;45.574;14.224;2023-01-15T04:31:55;96882.31;;;-0.25;99.98
75815;BME280;64451;45.574;14.224;2023-01-15T04:33:56;96883.13;;;0.01;99.53
75815;BME280;64451;45.574;14.224;2023-01-15T04:36:00;96880.88;;;0.16;98.10
75815;BME280;64451;45.574;14.224;2023-01-15T04:38:01;96888.25;;;0.14;96.89
75815;BME280;64451;45.574;14.224;2023-01-15T04:40:01;96892.00;;;0.24;97.25
75815;BME280;64451;45.574;14.224;2023-01-15T04:42:02;96878.06;;;0.17;97.45
75815;BME280;64451;45.574;14.224;2023-01-15T04:44:21;96882.88;;;0.20;97.04
75815;BME280;64451;45.574;14.224;2023-01-15T04:46:25;96881.69;;;0.16;97.35
75815;BME280;64451;45.574;14.224;2023-01-15T04:48:26;96873.56;;;0.18;97.41
75815;BME280;64451;45.574;14.224;2023-01-15T04:50:26;96867.59;;;0.22;97.37
75815;BME280;64451;45.574;14.224;2023-01-15T04:52:27;96870.00;;;0.24;97.01
75815;BME280;64451;45.574;14.224;2023-01-15T04:54:27;96868.59;;;0.40;97.01
75815;BME280;64451;45.574;14.224;2023-01-15T04:56:27;96876.94;;;0.43;96.09
75815;BME280;64451;45.574;14.224;2023-01-15T04:58:28;96866.13;;;0.26;96.59
75815;BME280;64451;45.574;14.224;2023-01-15T05:00:28;96866.88;;;0.34;96.48
75815;BME280;64451;45.574;14.224;2023-01-15T05:02:28;96873.38;;;0.31;96.45
75815;BME280;64451;45.574;14.224;2023-01-15T05:04:29;96867.31;;;0.12;97.58
75815;BME280;64451;45.574;14.224;2023-01-15T05:06:30;96866.44;;;0.00;97.78
75815;BME280;64451;45.574;14.224;2023-01-15T05:08:30;96861.34;;;-0.02;98.91
75815;BME280;64451;45.574;14.224;2023-01-15T05:10:31;96853.19;;;0.18;98.77
75815;BME280;64451;45.574;14.224;2023-01-15T05:12:31;96847.97;;;0.12;98.26
75815;BME280;64451;45.574;14.224;2023-01-15T05:14:31;96848.72;;;0.01;98.75
75815;BME280;64451;45.574;14.224;2023-01-15T05:16:32;96847.44;;;0.21;99.37
75815;BME280;64451;45.574;14.224;2023-01-15T05:18:34;96832.34;;;0.40;98.78
75815;BME280;64451;45.574;14.224;2023-01-15T05:20:36;96836.13;;;0.63;97.80
75815;BME280;64451;45.574;14.224;2023-01-15T05:22:36;96825.66;;;0.38;98.08
75815;BME280;64451;45.574;14.224;2023-01-15T05:24:36;96823.41;;;0.23;97.78
75815;BME280;64451;45.574;14.224;2023-01-15T05:26:37;96820.75;;;0.23;98.33
75815;BME280;64451;45.574;14.224;2023-01-15T05:28:38;96827.28;;;0.09;99.56
75815;BME280;64451;45.574;14.224;2023-01-15T05:30:38;96831.66;;;-0.04;99.91
75815;BME280;64451;45.574;14.224;2023-01-15T05:32:38;96828.00;;;-0.03;99.93
75815;BME280;64451;45.574;14.224;2023-01-15T05:34:39;96821.97;;;0.09;99.47
75815;BME280;64451;45.574;14.224;2023-01-15T05:36:39;96814.16;;;0.14;99.42
75815;BME280;64451;45.574;14.224;2023-01-15T05:38:40;96808.44;;;-0.02;100.00
75815;BME280;64451;45.574;14.224;2023-01-15T05:40:41;96812.13;;;-0.03;100.00
75815;BME280;64451;45.574;14.224;2023-01-15T05:42:41;96811.28;;;0.15;100.00
75815;BME280;64451;45.574;14.224;2023-01-15T05:44:41;96805.72;;;0.05;99.92
75815;BME280;64451;45.574;14.224;2023-01-15T05:46:44;96801.31;;;0.17;99.88
75815;BME280;64451;45.574;14.224;2023-01-15T05:48:44;96814.75;;;0.16;99.65
75815;BME280;64451;45.574;14.224;2023-01-15T05:50:45;96800.50;;;0.47;99.38
75815;BME280;64451;45.574;14.224;2023-01-15T05:52:45;96805.41;;;0.62;98.89
75815;BME280;64451;45.574;14.224;2023-01-15T05:54:48;96799.44;;;0.78;96.88
75815;BME280;64451;45.574;14.224;2023-01-15T05:56:48;96795.09;;;0.83;96.63
75815;BME280;64451;45.574;14.224;2023-01-15T05:58:49;96794.38;;;0.76;96.30
75815;BME280;64451;45.574;14.224;2023-01-15T06:00:49;96793.31;;;0.66;97.23
75815;BME280;64451;45.574;14.224;2023-01-15T06:02:49;96793.38;;;0.47;97.80
75815;BME280;64451;45.574;14.224;2023-01-15T06:04:50;96792.16;;;0.32;99.38
75815;BME280;64451;45.574;14.224;2023-01-15T06:06:51;96787.69;;;0.74;98.98
75815;BME280;64451;45.574;14.224;2023-01-15T06:08:52;96796.09;;;0.82;97.02
75815;BME280;64451;45.574;14.224;2023-01-15T06:10:52;96790.78;;;0.59;97.54
75815;BME280;64451;45.574;14.224;2023-01-15T06:12:53;96797.28;;;0.45;98.87
75815;BME280;64451;45.574;14.224;2023-01-15T06:14:53;96794.00;;;0.61;100.00
75815;BME280;64451;45.574;14.224;2023-01-15T06:16:53;96788.28;;;0.76;99.93
75815;BME280;64451;45.574;14.224;2023-01-15T06:18:54;96785.66;;;0.88;99.93
75815;BME280;64451;45.574;14.224;2023-01-15T06:20:54;96785.88;;;0.86;99.84
75815;BME280;64451;45.574;14.224;2023-01-15T06:22:55;96777.47;;;0.89;99.31
75815;BME280;64451;45.574;14.224;2023-01-15T06:24:55;96775.91;;;1.00;99.75
75815;BME280;64451;45.574;14.224;2023-01-15T06:26:55;96782.94;;;1.18;99.79
75815;BME280;64451;45.574;14.224;2023-01-15T06:28:55;96786.38;;;1.18;99.96
75815;BME280;64451;45.574;14.224;2023-01-15T06:30:56;96781.91;;;1.42;99.60
75815;BME280;64451;45.574;14.224;2023-01-15T06:32:56;96776.00;;;1.28;99.92
75815;BME280;64451;45.574;14.224;2023-01-15T06:34:57;96779.00;;;1.55;99.10
75815;BME280;64451;45.574;14.224;2023-01-15T06:36:57;96768.50;;;1.60;98.59
75815;BME280;64451;45.574;14.224;2023-01-15T06:39:03;96763.31;;;1.54;100.00
75815;BME280;64451;45.574;14.224;2023-01-15T06:41:11;96770.56;;;1.70;100.00
75815;BME280;64451;45.574;14.224;2023-01-15T06:43:33;96762.13;;;1.85;99.32
75815;BME280;64451;45.574;14.224;2023-01-15T06:45:52;96758.69;;;2.13;100.00
75815;BME280;64451;45.574;14.224;2023-01-15T06:48:21;96753.78;;;2.33;100.00
75815;BME280;64451;45.574;14.224;2023-01-15T06:50:29;96758.66;;;2.70;100.00
75815;BME280;64451;45.574;14.224;2023-01-15T06:52:29;96769.06;;;3.05;100.00
75815;BME280;64451;45.574;14.224;2023-01-15T06:54:30;96769.66;;;3.24;99.28
75815;BME280;64451;45.574;14.224;2023-01-15T06:56:31;96764.06;;;3.42;98.46
75815;BME280;64451;45.574;14.224;2023-01-15T06:58:33;96768.31;;;3.60;98.11
75815;BME280;64451;45.574;14.224;2023-01-15T07:00:34;96769.56;;;3.74;97.74
75815;BME280;64451;45.574;14.224;2023-01-15T07:02:34;96766.88;;;3.91;97.13
75815;BME280;64451;45.574;14.224;2023-01-15T07:04:35;96769.94;;;4.05;96.24
75815;BME280;64451;45.574;14.224;2023-01-15T07:06:35;96772.94;;;4.08;95.94
75815;BME280;64451;45.574;14.224;2023-01-15T07:08:36;96763.63;;;4.11;95.99
75815;BME280;64451;45.574;14.224;2023-01-15T07:10:37;96770.56;;;4.12;96.25
75815;BME280;64451;45.574;14.224;2023-01-15T07:12:37;96761.34;;;4.19;95.60
75815;BME280;64451;45.574;14.224;2023-01-15T07:14:38;96771.50;;;4.22;95.96
75815;BME280;64451;45.574;14.224;2023-01-15T07:16:38;96766.72;;;4.25;95.92
75815;BME280;64451;45.574;14.224;2023-01-15T07:18:38;96759.84;;;4.29;95.84
75815;BME280;64451;45.574;14.224;2023-01-15T07:20:39;96765.50;;;4.32;95.92
75815;BME280;64451;45.574;14.224;2023-01-15T07:22:39;96765.28;;;4.39;95.96
75815;BME280;64451;45.574;14.224;2023-01-15T07:24:39;96764.78;;;4.42;95.76
75815;BME280;64451;45.574;14.224;2023-01-15T07:26:40;96761.63;;;4.45;95.96
75815;BME280;64451;45.574;14.224;2023-01-15T07:28:41;96756.88;;;4.52;95.45
75815;BME280;64451;45.574;14.224;2023-01-15T07:30:41;96751.09;;;4.60;95.34
75815;BME280;64451;45.574;14.224;2023-01-15T07:32:41;96750.31;;;4.60;95.35
75815;BME280;64451;45.574;14.224;2023-01-15T07:34:42;96758.91;;;4.67;95.36
75815;BME280;64451;45.574;14.224;2023-01-15T07:36:42;96761.06;;;4.70;95.30
75815;BME280;64451;45.574;14.224;2023-01-15T07:38:42;96755.53;;;4.76;95.17
75815;BME280;64451;45.574;14.224;2023-01-15T07:40:43;96756.66;;;4.81;94.93
75815;BME280;64451;45.574;14.224;2023-01-15T07:42:43;96752.91;;;4.82;95.33
75815;BME280;64451;45.574;14.224;2023-01-15T07:45:02;96750.00;;;4.83;95.28
75815;BME280;64451;45.574;14.224;2023-01-15T07:47:29;96752.34;;;4.79;95.70
75815;BME280;64451;45.574;14.224;2023-01-15T07:49:50;96757.78;;;4.90;95.62
75815;BME280;64451;45.574;14.224;2023-01-15T07:51:50;96761.53;;;4.94;95.31
75815;BME280;64451;45.574;14.224;2023-01-15T07:53:50;96762.34;;;4.94;95.27
75815;BME280;64451;45.574;14.224;2023-01-15T07:55:51;96763.47;;;4.98;95.38
75815;BME280;64451;45.574;14.224;2023-01-15T07:57:51;96754.09;;;4.96;95.45
75815;BME280;64451;45.574;14.224;2023-01-15T07:59:52;96754.59;;;4.93;96.09
75815;BME280;64451;45.574;14.224;2023-01-15T08:01:53;96764.88;;;5.06;95.88
75815;BME280;64451;45.574;14.224;2023-01-15T08:03:53;96757.69;;;5.12;95.84
75815;BME280;64451;45.574;14.224;2023-01-15T08:05:53;96749.72;;;5.17;96.12
75815;BME280;64451;45.574;14.224;2023-01-15T08:07:54;96743.66;;;5.26;95.59
75815;BME280;64451;45.574;14.224;2023-01-15T08:09:54;96744.56;;;5.42;95.20
75815;BME280;64451;45.574;14.224;2023-01-15T08:11:55;96746.00;;;5.55;94.78
75815;BME280;64451;45.574;14.224;2023-01-15T08:14:16;96733.69;;;5.49;95.36
75815;BME280;64451;45.574;14.224;2023-01-15T08:16:35;96734.78;;;5.58;94.89
75815;BME280;64451;45.574;14.224;2023-01-15T08:18:36;96738.31;;;5.63;94.53
75815;BME280;64451;45.574;14.224;2023-01-15T08:20:37;96736.19;;;5.71;93.88
75815;BME280;64451;45.574;14.224;2023-01-15T08:22:37;96736.97;;;5.66;94.25
75815;BME280;64451;45.574;14.224;2023-01-15T08:24:39;96735.41;;;5.75;93.31
75815;BME280;64451;45.574;14.224;2023-01-15T08:26:39;96735.91;;;5.67;93.81
75815;BME280;64451;45.574;14.224;2023-01-15T08:28:39;96735.16;;;5.72;93.56
75815;BME280;64451;45.574;14.224;2023-01-15T08:30:40;96734.84;;;5.68;93.58
75815;BME280;64451;45.574;14.224;2023-01-15T08:32:40;96726.00;;;5.62;93.67
75815;BME280;64451;45.574;14.224;2023-01-15T08:34:41;96721.75;;;5.67;93.42
75815;BME280;64451;45.574;14.224;2023-01-15T08:36:41;96719.13;;;5.72;93.15
75815;BME280;64451;45.574;14.224;2023-01-15T08:38:41;96714.09;;;5.80;92.42
75815;BME280;64451;45.574;14.224;2023-01-15T08:40:42;96717.81;;;5.74;92.96
75815;BME280;64451;45.574;14.224;2023-01-15T08:42:57;96726.34;;;5.76;93.36
75815;BME280;64451;45.574;14.224;2023-01-15T08:44:57;96719.13;;;5.77;93.19
75815;BME280;64451;45.574;14.224;2023-01-15T08:46:58;96718.13;;;5.88;92.50
75815;BME280;64451;45.574;14.224;2023-01-15T08:48:58;96728.06;;;5.93;92.88
75815;BME280;64451;45.574;14.224;2023-01-15T08:51:05;96724.34;;;5.99;92.58
75815;BME280;64451;45.574;14.224;2023-01-15T08:53:05;96725.41;;;5.98;92.74
75815;BME280;64451;45.574;14.224;2023-01-15T08:55:06;96724.91;;;6.06;92.16
75815;BME280;64451;45.574;14.224;2023-01-15T08:57:07;96722.25;;;6.11;92.16
75815;BME280;64451;45.574;14.224;2023-01-15T08:59:08;96729.25;;;6.27;90.97
75815;BME280;64451;45.574;14.224;2023-01-15T09:01:10;96717.25;;;6.45;89.58
75815;BME280;64451;45.574;14.224;2023-01-15T09:03:14;96720.19;;;6.43;90.19
75815;BME280;64451;45.574;14.224;2023-01-15T09:05:15;96717.00;;;6.41;90.41
75815;BME280;64451;45.574;14.224;2023-01-15T09:07:15;96725.28;;;6.45;90.44
75815;BME280;64451;45.574;14.224;2023-01-15T09:09:15;96721.81;;;6.39;91.54
75815;BME280;64451;45.574;14.224;2023-01-15T09:11:17;96726.66;;;6.58;90.15
75815;BME280;64451;45.574;14.224;2023-01-15T09:13:18;96714.88;;;6.59;89.51
75815;BME280;64451;45.574;14.224;2023-01-15T09:15:18;96710.34;;;6.69;89.08
75815;BME280;64451;45.574;14.224;2023-01-15T09:17:18;96716.25;;;6.76;88.90
75815;BME280;64451;45.574;14.224;2023-01-15T09:19:19;96711.16;;;6.85;88.73
75815;BME280;64451;45.574;14.224;2023-01-15T09:21:19;96717.06;;;6.72;90.70
75815;BME280;64451;45.574;14.224;2023-01-15T09:23:19;96725.34;;;6.96;88.61
75815;BME280;64451;45.574;14.224;2023-01-15T09:25:20;96715.97;;;6.68;90.81
75815;BME280;64451;45.574;14.224;2023-01-15T09:27:30;96718.13;;;6.71;91.02
75815;BME280;64451;45.574;14.224;2023-01-15T09:29:33;96713.81;;;6.70;90.97
75815;BME280;64451;45.574;14.224;2023-01-15T09:31:34;96706.34;;;6.72;91.15
75815;BME280;64451;45.574;14.224;2023-01-15T09:33:34;96708.22;;;6.76;91.23
75815;BME280;64451;45.574;14.224;2023-01-15T09:35:34;96706.91;;;6.79;91.20
75815;BME280;64451;45.574;14.224;2023-01-15T09:37:35;96708.47;;;6.75;91.30
75815;BME280;64451;45.574;14.224;2023-01-15T09:39:38;96708.75;;;6.73;91.15
75815;BME280;64451;45.574;14.224;2023-01-15T09:44:14;96701.81;;;6.72;91.16
75815;BME280;64451;45.574;14.224;2023-01-15T09:46:22;96703.69;;;6.72;91.65
75815;BME280;64451;45.574;14.224;2023-01-15T09:48:48;96695.09;;;6.85;91.31
75815;BME280;64451;45.574;14.224;2023-01-15T09:51:28;96686.84;;;6.97;90.57
75815;BME280;64451;45.574;14.224;2023-01-15T09:56:00;96692.97;;;6.97;90.51
75815;BME280;64451;45.574;14.224;2023-01-15T09:58:03;96688.94;;;6.95;90.80
75815;BME280;64451;45.574;14.224;2023-01-15T10:00:07;96677.44;;;6.94;90.74
75815;BME280;64451;45.574;14.224;2023-01-15T10:02:27;96672.34;;;7.03;90.53
75815;BME280;64451;45.574;14.224;2023-01-15T10:04:56;96676.38;;;7.00;90.99
75815;BME280;64451;45.574;14.224;2023-01-15T10:07:08;96671.56;;;7.02;90.46
75815;BME280;64451;45.574;14.224;2023-01-15T10:09:14;96669.69;;;7.03;90.90
75815;BME280;64451;45.574;14.224;2023-01-15T10:13:27;96665.13;;;7.19;89.65
75815;BME280;64451;45.574;14.224;2023-01-15T10:15:41;96671.28;;;7.14;90.39
75815;BME280;64451;45.574;14.224;2023-01-15T10:17:45;96664.34;;;7.13;90.56
75815;BME280;64451;45.574;14.224;2023-01-15T10:19:46;96660.31;;;7.16;90.54
75815;BME280;64451;45.574;14.224;2023-01-15T10:22:22;96653.88;;;7.17;90.85
75815;BME280;64451;45.574;14.224;2023-01-15T10:24:42;96652.28;;;7.21;91.02
75815;BME280;64451;45.574;14.224;2023-01-15T10:26:55;96655.22;;;7.29;90.22
75815;BME280;64451;45.574;14.224;2023-01-15T10:29:00;96653.06;;;7.31;90.34
75815;BME280;64451;45.574;14.224;2023-01-15T10:31:10;96656.00;;;7.30;90.90
75815;BME280;64451;45.574;14.224;2023-01-15T10:33:39;96658.13;;;7.33;91.16
75815;BME280;64451;45.574;14.224;2023-01-15T10:35:58;96647.44;;;7.38;90.47
75815;BME280;64451;45.574;14.224;2023-01-15T10:40:24;96633.38;;;7.72;88.33
75815;BME280;64451;45.574;14.224;2023-01-15T10:42:54;96627.56;;;7.49;90.79
75815;BME280;64451;45.574;14.224;2023-01-15T10:45:21;96612.47;;;7.79;88.29
75815;BME280;64451;45.574;14.224;2023-01-15T10:47:31;96610.53;;;7.84;87.40
75815;BME280;64451;45.574;14.224;2023-01-15T10:49:34;96597.78;;;7.71;88.70
75815;BME280;64451;45.574;14.224;2023-01-15T10:52:03;96606.25;;;7.88;87.46
75815;BME280;64451;45.574;14.224;2023-01-15T10:54:18;96608.66;;;7.90;87.28
75815;BME280;64451;45.574;14.224;2023-01-15T10:56:41;96599.19;;;7.53;89.65
75815;BME280;64451;45.574;14.224;2023-01-15T10:58:48;96598.69;;;7.46;89.85
75815;BME280;64451;45.574;14.224;2023-01-15T11:00:56;96596.81;;;7.47;89.87
75815;BME280;64451;45.574;14.224;2023-01-15T11:03:02;96599.47;;;7.47;90.11
75815;BME280;64451;45.574;14.224;2023-01-15T11:05:15;96593.88;;;7.38;90.77
75815;BME280;64451;45.574;14.224;2023-01-15T11:07:17;96598.13;;;7.44;90.42
75815;BME280;64451;45.574;14.224;2023-01-15T11:09:20;96591.19;;;7.43;90.53
75815;BME280;64451;45.574;14.224;2023-01-15T11:13:54;96576.34;;;7.66;89.12
75815;BME280;64451;45.574;14.224;2023-01-15T11:16:21;96561.88;;;7.72;88.72
75815;BME280;64451;45.574;14.224;2023-01-15T11:18:42;96564.56;;;7.72;88.83
75815;BME280;64451;45.574;14.224;2023-01-15T11:21:02;96551.88;;;7.88;88.14
75815;BME280;64451;45.574;14.224;2023-01-15T11:23:11;96550.88;;;7.74;89.26